Pennysmart — VOFG — position and weather

sailwx.info

Track history (hours):
 
Tides and Currents Weather Stations Pressure Air Temp Water Temp Dewpoint Dewpoint Depression Visibility Wind Speed Wind Dir Waves Ship Positions

Pennysmart

Last reported at 2018-Jan-23 03:00 UTC. Time now 2018-Jan-23 04:19 UTC.
Position N 45°36' W 061°24'.

Length 40 m; draft 4.4 m.

Type: Cargo ship. MMSI: 316254000.

Wind from 010 at 4 knots

Barometer 1030.7 mb
Air temperature -9.3 ° C
Dewpoint -12.9 ° C

Date/timePositionNaut miles runAvg speedWind from/ knotsBaromVisibWave heightAir tempDewpointWater temp
2018-Jan-23 03:00N 45°36' W 061°24'0 0.0 010 / 41030.7 -9.3-12.9
2018-Jan-23 02:00N 45°36' W 061°24'0 0.0 350 / 61030.9 -8.9-12.7
2018-Jan-23 01:00N 45°36' W 061°24'0 0.0 330 / 81030.2 -8.7-12.3
2018-Jan-23 00:00N 45°36' W 061°24'0 0.0 330 / 101030.2 -8.1-11.9
2018-Jan-22 23:00N 45°36' W 061°24'0 0.0 330 / 121029.6 -8.3-12.3
2018-Jan-22 22:00N 45°36' W 061°24'0 0.0 320 / 141029.0 -7.8-12.1
2018-Jan-22 21:00N 45°36' W 061°24'0 0.0 310 / 131028.7 -7.8-12.5
2018-Jan-22 20:00N 45°36' W 061°24'0 0.0 300 / 131027.8 -7.6-13.8
2018-Jan-22 19:00N 45°36' W 061°24'0 0.0 320 / 151027.0 -7.5-14.0
2018-Jan-22 18:00N 45°36' W 061°24'0 0.0 290 / 181026.2 -8.1-14.1
2018-Jan-22 17:00N 45°36' W 061°24'0 0.0 310 / 161025.2 -7.8-14.6
2018-Jan-22 16:00N 45°36' W 061°24'0 0.0 300 / 191025.1 -8.2-15.0
2018-Jan-22 15:00N 45°36' W 061°24'0 0.0 310 / 181024.8 -7.5-15.6
2018-Jan-22 14:00N 45°36' W 061°24'0 0.0 300 / 181024.1 -7.6-14.7
2018-Jan-22 13:00N 45°36' W 061°24'0 0.0 300 / 181023.7 -8.4-13.8
2018-Jan-22 12:00N 45°36' W 061°24'0 0.0 300 / 161023.1 -8.9-13.1
2018-Jan-22 11:00N 45°36' W 061°24'0 0.0 310 / 171022.1 -8.7-12.9
2018-Jan-22 10:00N 45°36' W 061°24'0 0.0 300 / 181021.2 -8.3-13.4
2018-Jan-22 09:00N 45°36' W 061°24'0 0.0 300 / 211020.7 -8.0-13.9
2018-Jan-22 08:00N 45°36' W 061°24'0 0.0 300 / 201020.2 -7.2-13.3
2018-Jan-22 07:00N 45°36' W 061°24'0 0.0 300 / 221019.6 -6.6-12.6
2018-Jan-22 06:00N 45°36' W 061°24'0 0.0 300 / 181018.9 -5.7-11.8
2018-Jan-22 05:00N 45°36' W 061°24'0 0.0 290 / 171018.4 -5.2-11.3
2018-Jan-22 04:00N 45°36' W 061°24'0 0.0 300 / 131018.8 -6.0-10.2
2018-Jan-22 03:00N 45°36' W 061°24'0 0.0 290 / 131018.6 -5.6-10.3
2018-Jan-22 02:00N 45°36' W 061°24'0 0.0 290 / 111018.1 -5.5-10.2
2018-Jan-22 01:00N 45°36' W 061°24'0 0.0 290 / 131017.6 -5.7-10.6
2018-Jan-22 00:00N 45°36' W 061°24'0 0.0 300 / 141017.2 -5.4-10.7
2018-Jan-21 23:00N 45°36' W 061°24'0 0.0 300 / 141016.6 -5.3-9.7
2018-Jan-21 22:00N 45°36' W 061°24'0 0.0 300 / 111016.3 -5.2-9.5
2018-Jan-21 21:00N 45°36' W 061°24'0 0.0 310 / 121016.0 -5.2-9.2
2018-Jan-21 20:00N 45°36' W 061°24'0 0.0 320 / 121015.2 -4.5-8.3
2018-Jan-21 19:00N 45°36' W 061°24'0 0.0 320 / 121014.1 -4.3-8.8
2018-Jan-21 18:00N 45°36' W 061°24'0 0.0 320 / 141013.0 -4.3-9.0
2018-Jan-21 17:00N 45°36' W 061°24'0 0.0 300 / 181012.7 -4.0-8.5
2018-Jan-21 16:00N 45°36' W 061°24'0 0.0 300 / 181013.0 -3.1-7.7
2018-Jan-21 15:00N 45°36' W 061°24'0 0.0 320 / 101013.0 -3.5-6.2
2018-Jan-21 14:00N 45°36' W 061°24'0 0.0 330 / 161012.3 -2.9-6.4
2018-Jan-21 13:00N 45°36' W 061°24'0 0.0 330 / 161011.1 -2.5-6.0
2018-Jan-21 12:00N 45°36' W 061°24'0 0.0 340 / 131009.8 -2.2-4.9
2018-Jan-21 11:00N 45°36' W 061°24'0 0.0 330 / 161008.4 -1.5-3.8
2018-Jan-21 10:00N 45°36' W 061°24'0 0.0 320 / 191006.7 -0.3-4.6
2018-Jan-21 09:00N 45°36' W 061°24'0 0.0 320 / 171005.7 -0.0-3.9
2018-Jan-21 08:00N 45°36' W 061°24'0 0.0 320 / 131004.3 0.5-2.8
2018-Jan-21 07:00N 45°36' W 061°24'0 0.0 310 / 211002.5 2.3-1.0
2018-Jan-21 05:00N 45°36' W 061°24'0 0.0 280 / 141000.6 2.4-1.3
2018-Jan-21 04:00N 45°36' W 061°24'0 0.0 280 / 141000.0 2.2-1.3
2018-Jan-21 03:00N 45°36' W 061°24'0 0.0 280 / 17999.2 2.4-1.3
2018-Jan-21 02:00N 45°36' W 061°24'0 0.0 280 / 19998.7 2.3-1.0
2018-Jan-21 01:00N 45°36' W 061°24'0 0.0 290 / 16997.7 2.5-1.0
2018-Jan-21 00:00N 45°36' W 061°24'0 0.0 290 / 14997.4 2.9-1.0
2018-Jan-20 23:00N 45°36' W 061°24'0 0.0 310 / 15996.8 2.9-0.8
2018-Jan-20 22:00N 45°36' W 061°24'0 0.0 290 / 12995.8 2.9 0.7
2018-Jan-20 21:00N 45°36' W 061°24'0 0.0 260 / 10995.2 2.9 0.9
2018-Jan-20 20:00N 45°36' W 061°24'0 0.0 230 / 9995.3 2.5 0.6
2018-Jan-20 19:00N 45°36' W 061°24'0 0.0 250 / 9996.9 2.3 0.2
2018-Jan-20 18:00N 45°36' W 061°24'0 0.0 220 / 11998.0 1.9-0.3
2018-Jan-20 17:00N 45°36' W 061°24'0 0.0 220 / 11999.9 1.3-0.0
2018-Jan-20 16:00N 45°36' W 061°24'0 0.0 190 / 91001.6 -0.0-0.8
2018-Jan-20 15:00N 45°36' W 061°24'0 0.0 130 / 71003.9 -1.7-2.9
2018-Jan-20 14:00N 45°36' W 061°24'0 0.0 130 / 51005.9 -3.6-5.2
2018-Jan-20 13:00N 45°36' W 061°24'0 0.0 150 / 51007.3 -4.9-6.8
2018-Jan-20 12:00N 45°36' W 061°24'0 0.0 160 / 51008.3 -6.1-8.2
2018-Jan-20 11:00N 45°36' W 061°24'0 0.0 110 / 11010.0 -8.1-10.0
2018-Jan-20 10:00N 45°36' W 061°24'0 0.0 150 / 21010.8 -8.4-10.6
2018-Jan-20 09:00N 45°36' W 061°24'0 0.0 200 / 31010.8 -8.9-10.8
2018-Jan-20 07:00N 45°36' W 061°24'0 0.0 230 / 61012.4 -8.3-9.9
2018-Jan-20 06:00N 45°36' W 061°24'0 0.0 250 / 61012.6 -7.2-9.5
2018-Jan-20 05:00N 45°36' W 061°24'0 0.0 260 / 91012.2 -6.9-9.0
2018-Jan-20 04:00N 45°36' W 061°24'0 0.0 270 / 81012.1 -6.4-9.4
2018-Jan-20 03:00N 45°36' W 061°24'0 0.0 290 / 71011.9 -5.9-9.0
2018-Jan-20 02:00N 45°36' W 061°24'0 0.0 310 / 71011.5 -5.6-9.1
2018-Jan-20 01:00N 45°36' W 061°24'0 0.0 340 / 71011.4 -5.6-8.9
2018-Jan-20 00:00N 45°36' W 061°24'0 0.0 350 / 71011.0 -5.7-8.8
2018-Jan-19 23:00N 45°36' W 061°24'0 0.0 350 / 81010.7 -5.7-8.8
2018-Jan-19 22:00N 45°36' W 061°24'0 0.0 350 / 101010.3 -5.6-8.8
2018-Jan-19 21:00N 45°36' W 061°24'0 0.0 340 / 131009.8 -5.1-8.2
2018-Jan-19 20:00N 45°36' W 061°24'0 0.0 350 / 91009.3 -5.2-8.5
2018-Jan-19 19:00N 45°36' W 061°24'0 0.0 340 / 101008.7 -4.7-7.7
2018-Jan-19 18:00N 45°36' W 061°24'0 0.0 350 / 111007.9 -4.7-8.3
2018-Jan-19 17:00N 45°36' W 061°24'0 0.0 330 / 111008.2 -4.4-7.6
2018-Jan-19 16:00N 45°36' W 061°24'0 0.0 340 / 101008.5 -4.2-7.3
2018-Jan-19 15:00N 45°36' W 061°24'0 0.0 360 / 61009.1 -4.1-7.3
2018-Jan-19 14:00N 45°36' W 061°24'0 0.0 350 / 71008.8 -4.0-7.2
2018-Jan-19 13:00N 45°36' W 061°24'0 0.0 350 / 71007.6 -4.1-6.7
2018-Jan-19 12:00N 45°36' W 061°24'0 0.0 350 / 61007.2 -4.3-7.1
2018-Jan-19 11:00N 45°36' W 061°24'0 0.0 360 / 41007.4 -4.5-7.2
2018-Jan-19 10:00N 45°36' W 061°24'0 0.0 360 / 41007.3 -4.4-7.2
2018-Jan-19 09:00N 45°36' W 061°24'0 0.0 360 / 41006.8 -4.5-7.2
2018-Jan-19 08:00N 45°36' W 061°24'0 0.0 350 / 31007.5 -4.5-6.7
2018-Jan-19 07:00N 45°36' W 061°24'0 0.0 360 / 31007.8 -4.3-6.5
2018-Jan-19 06:00N 45°36' W 061°24'0 0.0 360 / 31007.7 -4.2-6.4
2018-Jan-19 05:00N 45°36' W 061°24'0 0.0 350 / 51007.3 -4.2-6.3
2018-Jan-19 04:00N 45°36' W 061°24'0 0.0 010 / 71007.9 -3.8-6.4
2018-Jan-19 03:00N 45°36' W 061°24'0 0.0 350 / 61008.6 -3.2-5.4
2018-Jan-19 02:00N 45°36' W 061°24'0 0.0 350 / 71007.7 -2.7-4.7
2018-Jan-19 01:00N 45°36' W 061°24'0 0.0 340 / 91008.2 -2.0-3.1
2018-Jan-19 00:00N 45°36' W 061°24'0 0.0 320 / 31007.7 -2.2-2.5
2018-Jan-18 23:00N 45°36' W 061°24'0 0.0 350 / 51007.6 -2.7-2.9
2018-Jan-18 22:00N 45°36' W 061°24'0 0.0 340 / 71007.5 -2.3-2.6
2018-Jan-18 21:00N 45°36' W 061°24'0 0.0 340 / 51007.4 -2.0-2.4
2018-Jan-18 20:00N 45°36' W 061°24'0 0.0 340 / 71007.6 -1.8-2.2
2018-Jan-18 18:00N 45°36' W 061°24'0 0.0 330 / 71007.7 -1.3-2.0
2018-Jan-18 17:00N 45°36' W 061°24'0 0.0 340 / 81008.0 -1.1-1.5
2018-Jan-18 16:00N 45°36' W 061°24'0 0.0 330 / 91008.9 -1.3-1.4
2018-Jan-18 15:00N 45°36' W 061°24'0 0.0 340 / 61009.3 -1.4-1.5
2018-Jan-18 14:00N 45°36' W 061°24'0 0.0 330 / 91009.0 -1.6-1.7
2018-Jan-18 13:00N 45°36' W 061°24'0 0.0 320 / 91008.6 -1.7-1.8
2018-Jan-18 12:00N 45°36' W 061°24'0 0.0 320 / 101007.6 -1.7-1.8
2018-Jan-18 11:00N 45°36' W 061°24'0 0.0 330 / 61007.6 -1.5-1.6
2018-Jan-18 10:00N 45°36' W 061°24'0 0.0 340 / 81007.7 -1.2-1.3
2018-Jan-18 09:00N 45°36' W 061°24'0 0.0 330 / 71008.0 -1.5-1.6
2018-Jan-18 08:00N 45°36' W 061°24'0 0.0 070 / 21008.1 -1.3-1.4
2018-Jan-18 07:00N 45°36' W 061°24'0 0.0 110 / 31010.4 -1.5-1.6
2018-Jan-18 06:00N 45°36' W 061°24'0 0.0 140 / 21012.5 -1.6-1.7
2018-Jan-18 05:00N 45°36' W 061°24'0 0.0 130 / 31013.8 -1.7-1.8
2018-Jan-18 04:00N 45°36' W 061°24'0 0.0 110 / 51015.2 -1.9-2.0
2018-Jan-18 03:00N 45°36' W 061°24'0 0.0 100 / 31017.7 -2.1-2.3
2018-Jan-18 02:00N 45°36' W 061°24'0 0.0 110 / 31019.9 -2.1-2.3
2018-Jan-18 01:00N 45°36' W 061°24'0 0.0 120 / 51021.8 -2.2-2.4
2018-Jan-18 00:00N 45°36' W 061°24'0 0.0 130 / 61023.8 -2.3-2.5
2018-Jan-17 23:00N 45°36' W 061°24'0 0.0 120 / 41025.4 -2.8-2.9
2018-Jan-17 22:00N 45°36' W 061°24'0 0.0 130 / 31026.3 -3.0-3.2
2018-Jan-17 21:00N 45°36' W 061°24'0 0.0 130 / 41026.4 -3.0-3.2
2018-Jan-17 20:00N 45°36' W 061°24'0 0.0 120 / 31027.4 -3.1-3.3
2018-Jan-17 19:00N 45°36' W 061°24'0 0.0 130 / 61028.5 -2.9-3.3
2018-Jan-17 18:00N 45°36' W 061°24'0 0.0 120 / 31029.8 -2.9-3.6
2018-Jan-17 17:00N 45°36' W 061°24'0 0.0 130 / 11030.8 -2.7-3.6
2018-Jan-17 16:00N 45°36' W 061°24'0 0.0 150 / 11031.9 -3.0-4.3
2018-Jan-17 15:00N 45°36' W 061°24'0 0.0 1033.0 -3.2-4.4
2018-Jan-17 14:00N 45°36' W 061°24'0 0.0 190 / 21033.3 -4.5-5.5
2018-Jan-17 13:00N 45°36' W 061°24'0 0.0 220 / 41033.1 -4.8-6.2
2018-Jan-17 12:00N 45°36' W 061°24'0 0.0 270 / 41032.6 -4.1-6.4
2018-Jan-17 11:00N 45°36' W 061°24'0 0.0 280 / 61032.6 -4.3-6.6
2018-Jan-17 10:00N 45°36' W 061°24'0 0.0 270 / 61031.7 -4.3-6.6
2018-Jan-17 09:00N 45°36' W 061°24'0 0.0 260 / 71031.8 -4.3-6.7
2018-Jan-17 08:00N 45°36' W 061°24'0 0.0 270 / 71031.1 -4.3-6.4
2018-Jan-17 06:00N 45°36' W 061°24'0 0.0 280 / 51031.3 -4.0-6.4
2018-Jan-17 05:00N 45°36' W 061°24'0 0.0 300 / 71031.3 -3.6-6.3
2018-Jan-17 04:00N 45°36' W 061°24'0 0.0 300 / 81031.2 -3.2-5.9
2018-Jan-17 03:00N 45°36' W 061°24'0 0.0 310 / 81031.6 -3.1-4.7
2018-Jan-17 02:00N 45°36' W 061°24'0 0.0 330 / 81031.4 -3.0-3.7
2018-Jan-17 01:00N 45°36' W 061°24'0 0.0 310 / 71031.1 -2.9-3.3
2018-Jan-17 00:00N 45°36' W 061°24'0 0.0 320 / 61030.6 -2.9-3.4
2018-Jan-16 23:00N 45°36' W 061°24'0 0.0 310 / 81030.2 -2.8-3.8
2018-Jan-16 22:00N 45°36' W 061°24'0 0.0 320 / 81029.5 -2.8-4.0
2018-Jan-16 21:00N 45°36' W 061°24'0 0.0 330 / 91028.8 -2.7-4.0
2018-Jan-16 20:00N 45°36' W 061°24'0 0.0 330 / 101028.3 -2.6-4.0
2018-Jan-16 08:00N 45°36' W 061°24'0 0.0 360 / 31026.1 -3.3-3.4
2018-Jan-16 07:00N 45°36' W 061°24'0 0.0 360 / 31026.7 -3.9-4.2
2018-Jan-16 06:00N 45°36' W 061°24'0 0.0 340 / 51027.7 -3.8-4.1
2018-Jan-16 05:00N 45°36' W 061°24'0 0.0 060 / 51029.2 -4.0-4.5
2018-Jan-16 04:00N 45°36' W 061°24'0 0.0 060 / 51031.1 -4.3-5.0
2018-Jan-16 03:00N 45°36' W 061°24'0 0.0 070 / 51033.5 -4.9-5.7
2018-Jan-16 02:00N 45°36' W 061°24'0 0.0 060 / 41034.8 -4.9-6.3
2018-Jan-16 01:00N 45°36' W 061°24'0 0.0 090 / 41036.9 -4.0-8.0
2018-Jan-16 00:00N 45°36' W 061°24'0 0.0 080 / 51037.8 -4.3-8.2
2018-Jan-15 23:00N 45°36' W 061°24'0 0.0 060 / 31039.2 -4.8-8.1
2018-Jan-15 22:00N 45°36' W 061°24'0 0.0 060 / 41039.3 -4.9-8.5
2018-Jan-15 21:00N 45°36' W 061°24'0 0.0 060 / 51040.0 -4.9-9.0
2018-Jan-15 20:00N 45°36' W 061°24'0 0.0 090 / 31040.2 -4.4-9.0
2018-Jan-15 17:00N 45°36' W 061°24'0 0.0 090 / 41042.1 -4.3-9.8
2018-Jan-15 16:00N 45°36' W 061°24'0 0.0 020 / 31043.3 -5.1-10.5
2018-Jan-15 15:00N 45°36' W 061°24'0 0.0 010 / 61044.1 -5.7-10.9
2018-Jan-15 14:00N 45°36' W 061°24'0 0.0 010 / 51044.2 -6.1-10.7
2018-Jan-15 13:00N 45°36' W 061°24'0 0.0 360 / 61043.0 -6.4-10.1
2018-Jan-15 12:00N 45°36' W 061°24'0 0.0 360 / 51042.6 -6.6-10.4
2018-Jan-15 11:00N 45°36' W 061°24'0 0.0 010 / 61042.0 -6.4-10.2
2018-Jan-15 10:00N 45°36' W 061°24'0 0.0 360 / 41041.6 -6.1-10.0
2018-Jan-15 09:00N 45°36' W 061°24'0 0.0 010 / 51041.0 -6.3-10.7
2018-Jan-15 08:00N 45°36' W 061°24'0 0.0 360 / 71040.3 -6.0-9.9
2018-Jan-15 07:00N 45°36' W 061°24'0 0.0 360 / 61040.6 -5.7-9.7
2018-Jan-15 06:00N 45°36' W 061°24'0 0.0 010 / 71039.3 -5.4-9.2
2018-Jan-15 05:00N 45°36' W 061°24'0 0.0 360 / 61038.5 -5.1-9.2
2018-Jan-15 04:00N 45°36' W 061°24'0 0.0 010 / 71038.3 -5.0-8.8
2018-Jan-15 03:00N 45°36' W 061°24'0 0.0 020 / 41037.6 -4.8-8.6
2018-Jan-15 02:00N 45°36' W 061°24'0 0.0 010 / 71036.7 -4.7-8.3
2018-Jan-15 01:00N 45°36' W 061°24'0 0.0 010 / 51036.2 -4.7-8.0
2018-Jan-15 00:00N 45°36' W 061°24'0 0.0 010 / 71035.3 -4.6-7.4
2018-Jan-14 23:00N 45°36' W 061°24'0 0.0 360 / 61034.0 -4.5-6.8
2018-Jan-14 22:00N 45°36' W 061°24'0 0.0 360 / 81033.2 -4.3-6.7
2018-Jan-14 21:00N 45°36' W 061°24'0 0.0 360 / 61032.2 -4.2-6.7
2018-Jan-14 20:00N 45°36' W 061°24'0 0.0 350 / 111031.1 -4.0-6.4
2018-Jan-14 19:00N 45°36' W 061°24'0 0.0 340 / 121029.4 -3.7-5.8
2018-Jan-14 18:00N 45°36' W 061°24'0 0.0 350 / 101028.3 -3.5-5.6
2018-Jan-14 17:00N 45°36' W 061°24'0 0.0 340 / 91028.7 -3.5-5.5
2018-Jan-14 16:00N 45°36' W 061°24'0 0.0 340 / 111028.1 -3.4-5.6
2018-Jan-14 15:00N 45°36' W 061°24'0 0.0 340 / 101028.2 -3.4-5.6
2018-Jan-14 14:00N 45°36' W 061°24'0 0.0 350 / 91027.4 -3.5-5.4
2018-Jan-14 13:00N 45°36' W 061°24'0 0.0 350 / 91025.9 -3.5-5.0
2018-Jan-14 12:00N 45°36' W 061°24'0 0.0 350 / 81024.2 -3.4-4.7
2018-Jan-14 11:00N 45°36' W 061°24'0 0.0 350 / 81023.6 -3.2-4.4
2018-Jan-14 10:00N 45°36' W 061°24'0 0.0 350 / 101022.3 -2.9-3.5
2018-Jan-14 09:00N 45°36' W 061°24'0 0.0 340 / 91021.3 -2.7-3.3
2018-Jan-14 08:00N 45°36' W 061°24'0 0.0 340 / 121020.1 -2.6-2.9
2018-Jan-14 07:00N 45°36' W 061°24'0 0.0 330 / 151018.6 -2.5-2.8
2018-Jan-14 06:00N 45°36' W 061°24'0 0.0 330 / 161017.4 -2.0-2.4
2018-Jan-14 05:00N 45°36' W 061°24'0 0.0 320 / 131015.9 -1.2-1.6
2018-Jan-14 04:00N 45°36' W 061°24'0 0.0 320 / 131014.7 -0.6-1.1
2018-Jan-14 03:00N 45°36' W 061°24'0 0.0 320 / 151013.2 1.0 0.2
2018-Jan-14 02:00N 45°36' W 061°24'0 0.0 250 / 91010.7 11.710.1
2018-Jan-14 01:00N 45°36' W 061°24'0 0.0 240 / 151009.3 12.810.8
2018-Jan-14 00:00N 45°36' W 061°24'0 0.0 220 / 141008.7 13.611.8
2018-Jan-13 23:00N 45°36' W 061°24'   230 / 111007.8 13.312.0
Track history (hours):
 
Tides and Currents Weather Stations Pressure Air Temp Water Temp Dewpoint Dewpoint Depression Visibility Wind Speed Wind Dir Waves Ship Positions

Pennysmart

Last reported at 2018-Jan-23 03:00 UTC. Time now 2018-Jan-23 04:19 UTC.
Position N 45°36' W 061°24'.

Length 40 m; draft 4.4 m.

Type: Cargo ship. MMSI: 316254000.

Wind from 010 at 4 knots

Barometer 1030.7 mb
Air temperature -9.3 ° C
Dewpoint -12.9 ° C

Date/timePositionNaut miles runAvg speedWind from/ knotsBaromVisibWave heightAir tempDewpointWater temp
2018-Jan-23 03:00N 45°36' W 061°24'0 0.0 010 / 41030.7 -9.3-12.9
2018-Jan-23 02:00N 45°36' W 061°24'0 0.0 350 / 61030.9 -8.9-12.7
2018-Jan-23 01:00N 45°36' W 061°24'0 0.0 330 / 81030.2 -8.7-12.3
2018-Jan-23 00:00N 45°36' W 061°24'0 0.0 330 / 101030.2 -8.1-11.9
2018-Jan-22 23:00N 45°36' W 061°24'0 0.0 330 / 121029.6 -8.3-12.3
2018-Jan-22 22:00N 45°36' W 061°24'0 0.0 320 / 141029.0 -7.8-12.1
2018-Jan-22 21:00N 45°36' W 061°24'0 0.0 310 / 131028.7 -7.8-12.5
2018-Jan-22 20:00N 45°36' W 061°24'0 0.0 300 / 131027.8 -7.6-13.8
2018-Jan-22 19:00N 45°36' W 061°24'0 0.0 320 / 151027.0 -7.5-14.0
2018-Jan-22 18:00N 45°36' W 061°24'0 0.0 290 / 181026.2 -8.1-14.1
2018-Jan-22 17:00N 45°36' W 061°24'0 0.0 310 / 161025.2 -7.8-14.6
2018-Jan-22 16:00N 45°36' W 061°24'0 0.0 300 / 191025.1 -8.2-15.0
2018-Jan-22 15:00N 45°36' W 061°24'0 0.0 310 / 181024.8 -7.5-15.6
2018-Jan-22 14:00N 45°36' W 061°24'0 0.0 300 / 181024.1 -7.6-14.7
2018-Jan-22 13:00N 45°36' W 061°24'0 0.0 300 / 181023.7 -8.4-13.8
2018-Jan-22 12:00N 45°36' W 061°24'0 0.0 300 / 161023.1 -8.9-13.1
2018-Jan-22 11:00N 45°36' W 061°24'0 0.0 310 / 171022.1 -8.7-12.9
2018-Jan-22 10:00N 45°36' W 061°24'0 0.0 300 / 181021.2 -8.3-13.4
2018-Jan-22 09:00N 45°36' W 061°24'0 0.0 300 / 211020.7 -8.0-13.9
2018-Jan-22 08:00N 45°36' W 061°24'0 0.0 300 / 201020.2 -7.2-13.3
2018-Jan-22 07:00N 45°36' W 061°24'0 0.0 300 / 221019.6 -6.6-12.6
2018-Jan-22 06:00N 45°36' W 061°24'0 0.0 300 / 181018.9 -5.7-11.8
2018-Jan-22 05:00N 45°36' W 061°24'0 0.0 290 / 171018.4 -5.2-11.3
2018-Jan-22 04:00N 45°36' W 061°24'0 0.0 300 / 131018.8 -6.0-10.2
2018-Jan-22 03:00N 45°36' W 061°24'0 0.0 290 / 131018.6 -5.6-10.3
2018-Jan-22 02:00N 45°36' W 061°24'0 0.0 290 / 111018.1 -5.5-10.2
2018-Jan-22 01:00N 45°36' W 061°24'0 0.0 290 / 131017.6 -5.7-10.6
2018-Jan-22 00:00N 45°36' W 061°24'0 0.0 300 / 141017.2 -5.4-10.7
2018-Jan-21 23:00N 45°36' W 061°24'0 0.0 300 / 141016.6 -5.3-9.7
2018-Jan-21 22:00N 45°36' W 061°24'0 0.0 300 / 111016.3 -5.2-9.5
2018-Jan-21 21:00N 45°36' W 061°24'0 0.0 310 / 121016.0 -5.2-9.2
2018-Jan-21 20:00N 45°36' W 061°24'0 0.0 320 / 121015.2 -4.5-8.3
2018-Jan-21 19:00N 45°36' W 061°24'0 0.0 320 / 121014.1 -4.3-8.8
2018-Jan-21 18:00N 45°36' W 061°24'0 0.0 320 / 141013.0 -4.3-9.0
2018-Jan-21 17:00N 45°36' W 061°24'0 0.0 300 / 181012.7 -4.0-8.5
2018-Jan-21 16:00N 45°36' W 061°24'0 0.0 300 / 181013.0 -3.1-7.7
2018-Jan-21 15:00N 45°36' W 061°24'0 0.0 320 / 101013.0 -3.5-6.2
2018-Jan-21 14:00N 45°36' W 061°24'0 0.0 330 / 161012.3 -2.9-6.4
2018-Jan-21 13:00N 45°36' W 061°24'0 0.0 330 / 161011.1 -2.5-6.0
2018-Jan-21 12:00N 45°36' W 061°24'0 0.0 340 / 131009.8 -2.2-4.9
2018-Jan-21 11:00N 45°36' W 061°24'0 0.0 330 / 161008.4 -1.5-3.8
2018-Jan-21 10:00N 45°36' W 061°24'0 0.0 320 / 191006.7 -0.3-4.6
2018-Jan-21 09:00N 45°36' W 061°24'0 0.0 320 / 171005.7 -0.0-3.9
2018-Jan-21 08:00N 45°36' W 061°24'0 0.0 320 / 131004.3 0.5-2.8
2018-Jan-21 07:00N 45°36' W 061°24'0 0.0 310 / 211002.5 2.3-1.0
2018-Jan-21 05:00N 45°36' W 061°24'0 0.0 280 / 141000.6 2.4-1.3
2018-Jan-21 04:00N 45°36' W 061°24'0 0.0 280 / 141000.0 2.2-1.3
2018-Jan-21 03:00N 45°36' W 061°24'0 0.0 280 / 17999.2 2.4-1.3
2018-Jan-21 02:00N 45°36' W 061°24'0 0.0 280 / 19998.7 2.3-1.0
2018-Jan-21 01:00N 45°36' W 061°24'0 0.0 290 / 16997.7 2.5-1.0
2018-Jan-21 00:00N 45°36' W 061°24'0 0.0 290 / 14997.4 2.9-1.0
2018-Jan-20 23:00N 45°36' W 061°24'0 0.0 310 / 15996.8 2.9-0.8
2018-Jan-20 22:00N 45°36' W 061°24'0 0.0 290 / 12995.8 2.9 0.7
2018-Jan-20 21:00N 45°36' W 061°24'0 0.0 260 / 10995.2 2.9 0.9
2018-Jan-20 20:00N 45°36' W 061°24'0 0.0 230 / 9995.3 2.5 0.6
2018-Jan-20 19:00N 45°36' W 061°24'0 0.0 250 / 9996.9 2.3 0.2
2018-Jan-20 18:00N 45°36' W 061°24'0 0.0 220 / 11998.0 1.9-0.3
2018-Jan-20 17:00N 45°36' W 061°24'0 0.0 220 / 11999.9 1.3-0.0
2018-Jan-20 16:00N 45°36' W 061°24'0 0.0 190 / 91001.6 -0.0-0.8
2018-Jan-20 15:00N 45°36' W 061°24'0 0.0 130 / 71003.9 -1.7-2.9
2018-Jan-20 14:00N 45°36' W 061°24'0 0.0 130 / 51005.9 -3.6-5.2
2018-Jan-20 13:00N 45°36' W 061°24'0 0.0 150 / 51007.3 -4.9-6.8
2018-Jan-20 12:00N 45°36' W 061°24'0 0.0 160 / 51008.3 -6.1-8.2
2018-Jan-20 11:00N 45°36' W 061°24'0 0.0 110 / 11010.0 -8.1-10.0
2018-Jan-20 10:00N 45°36' W 061°24'0 0.0 150 / 21010.8 -8.4-10.6
2018-Jan-20 09:00N 45°36' W 061°24'0 0.0 200 / 31010.8 -8.9-10.8
2018-Jan-20 07:00N 45°36' W 061°24'0 0.0 230 / 61012.4 -8.3-9.9
2018-Jan-20 06:00N 45°36' W 061°24'0 0.0 250 / 61012.6 -7.2-9.5
2018-Jan-20 05:00N 45°36' W 061°24'0 0.0 260 / 91012.2 -6.9-9.0
2018-Jan-20 04:00N 45°36' W 061°24'0 0.0 270 / 81012.1 -6.4-9.4
2018-Jan-20 03:00N 45°36' W 061°24'0 0.0 290 / 71011.9 -5.9-9.0
2018-Jan-20 02:00N 45°36' W 061°24'0 0.0 310 / 71011.5 -5.6-9.1
2018-Jan-20 01:00N 45°36' W 061°24'0 0.0 340 / 71011.4 -5.6-8.9
2018-Jan-20 00:00N 45°36' W 061°24'0 0.0 350 / 71011.0 -5.7-8.8
2018-Jan-19 23:00N 45°36' W 061°24'0 0.0 350 / 81010.7 -5.7-8.8
2018-Jan-19 22:00N 45°36' W 061°24'0 0.0 350 / 101010.3 -5.6-8.8
2018-Jan-19 21:00N 45°36' W 061°24'0 0.0 340 / 131009.8 -5.1-8.2
2018-Jan-19 20:00N 45°36' W 061°24'0 0.0 350 / 91009.3 -5.2-8.5
2018-Jan-19 19:00N 45°36' W 061°24'0 0.0 340 / 101008.7 -4.7-7.7
2018-Jan-19 18:00N 45°36' W 061°24'0 0.0 350 / 111007.9 -4.7-8.3
2018-Jan-19 17:00N 45°36' W 061°24'0 0.0 330 / 111008.2 -4.4-7.6
2018-Jan-19 16:00N 45°36' W 061°24'0 0.0 340 / 101008.5 -4.2-7.3
2018-Jan-19 15:00N 45°36' W 061°24'0 0.0 360 / 61009.1 -4.1-7.3
2018-Jan-19 14:00N 45°36' W 061°24'0 0.0 350 / 71008.8 -4.0-7.2
2018-Jan-19 13:00N 45°36' W 061°24'0 0.0 350 / 71007.6 -4.1-6.7
2018-Jan-19 12:00N 45°36' W 061°24'0 0.0 350 / 61007.2 -4.3-7.1
2018-Jan-19 11:00N 45°36' W 061°24'0 0.0 360 / 41007.4 -4.5-7.2
2018-Jan-19 10:00N 45°36' W 061°24'0 0.0 360 / 41007.3 -4.4-7.2
2018-Jan-19 09:00N 45°36' W 061°24'0 0.0 360 / 41006.8 -4.5-7.2
2018-Jan-19 08:00N 45°36' W 061°24'0 0.0 350 / 31007.5 -4.5-6.7
2018-Jan-19 07:00N 45°36' W 061°24'0 0.0 360 / 31007.8 -4.3-6.5
2018-Jan-19 06:00N 45°36' W 061°24'0 0.0 360 / 31007.7 -4.2-6.4
2018-Jan-19 05:00N 45°36' W 061°24'0 0.0 350 / 51007.3 -4.2-6.3
2018-Jan-19 04:00N 45°36' W 061°24'0 0.0 010 / 71007.9 -3.8-6.4
2018-Jan-19 03:00N 45°36' W 061°24'0 0.0 350 / 61008.6 -3.2-5.4
2018-Jan-19 02:00N 45°36' W 061°24'0 0.0 350 / 71007.7 -2.7-4.7
2018-Jan-19 01:00N 45°36' W 061°24'0 0.0 340 / 91008.2 -2.0-3.1
2018-Jan-19 00:00N 45°36' W 061°24'0 0.0 320 / 31007.7 -2.2-2.5
2018-Jan-18 23:00N 45°36' W 061°24'0 0.0 350 / 51007.6 -2.7-2.9
2018-Jan-18 22:00N 45°36' W 061°24'0 0.0 340 / 71007.5 -2.3-2.6
2018-Jan-18 21:00N 45°36' W 061°24'0 0.0 340 / 51007.4 -2.0-2.4
2018-Jan-18 20:00N 45°36' W 061°24'0 0.0 340 / 71007.6 -1.8-2.2
2018-Jan-18 18:00N 45°36' W 061°24'0 0.0 330 / 71007.7 -1.3-2.0
2018-Jan-18 17:00N 45°36' W 061°24'0 0.0 340 / 81008.0 -1.1-1.5
2018-Jan-18 16:00N 45°36' W 061°24'0 0.0 330 / 91008.9 -1.3-1.4
2018-Jan-18 15:00N 45°36' W 061°24'0 0.0 340 / 61009.3 -1.4-1.5
2018-Jan-18 14:00N 45°36' W 061°24'0 0.0 330 / 91009.0 -1.6-1.7
2018-Jan-18 13:00N 45°36' W 061°24'0 0.0 320 / 91008.6 -1.7-1.8
2018-Jan-18 12:00N 45°36' W 061°24'0 0.0 320 / 101007.6 -1.7-1.8
2018-Jan-18 11:00N 45°36' W 061°24'0 0.0 330 / 61007.6 -1.5-1.6
2018-Jan-18 10:00N 45°36' W 061°24'0 0.0 340 / 81007.7 -1.2-1.3
2018-Jan-18 09:00N 45°36' W 061°24'0 0.0 330 / 71008.0 -1.5-1.6
2018-Jan-18 08:00N 45°36' W 061°24'0 0.0 070 / 21008.1 -1.3-1.4
2018-Jan-18 07:00N 45°36' W 061°24'0 0.0 110 / 31010.4 -1.5-1.6
2018-Jan-18 06:00N 45°36' W 061°24'0 0.0 140 / 21012.5 -1.6-1.7
2018-Jan-18 05:00N 45°36' W 061°24'0 0.0 130 / 31013.8 -1.7-1.8
2018-Jan-18 04:00N 45°36' W 061°24'0 0.0 110 / 51015.2 -1.9-2.0
2018-Jan-18 03:00N 45°36' W 061°24'0 0.0 100 / 31017.7 -2.1-2.3
2018-Jan-18 02:00N 45°36' W 061°24'0 0.0 110 / 31019.9 -2.1-2.3
2018-Jan-18 01:00N 45°36' W 061°24'0 0.0 120 / 51021.8 -2.2-2.4
2018-Jan-18 00:00N 45°36' W 061°24'0 0.0 130 / 61023.8 -2.3-2.5
2018-Jan-17 23:00N 45°36' W 061°24'0 0.0 120 / 41025.4 -2.8-2.9
2018-Jan-17 22:00N 45°36' W 061°24'0 0.0 130 / 31026.3 -3.0-3.2
2018-Jan-17 21:00N 45°36' W 061°24'0 0.0 130 / 41026.4 -3.0-3.2
2018-Jan-17 20:00N 45°36' W 061°24'0 0.0 120 / 31027.4 -3.1-3.3
2018-Jan-17 19:00N 45°36' W 061°24'0 0.0 130 / 61028.5 -2.9-3.3
2018-Jan-17 18:00N 45°36' W 061°24'0 0.0 120 / 31029.8 -2.9-3.6
2018-Jan-17 17:00N 45°36' W 061°24'0 0.0 130 / 11030.8 -2.7-3.6
2018-Jan-17 16:00N 45°36' W 061°24'0 0.0 150 / 11031.9 -3.0-4.3
2018-Jan-17 15:00N 45°36' W 061°24'0 0.0 1033.0 -3.2-4.4
2018-Jan-17 14:00N 45°36' W 061°24'0 0.0 190 / 21033.3 -4.5-5.5
2018-Jan-17 13:00N 45°36' W 061°24'0 0.0 220 / 41033.1 -4.8-6.2
2018-Jan-17 12:00N 45°36' W 061°24'0 0.0 270 / 41032.6 -4.1-6.4
2018-Jan-17 11:00N 45°36' W 061°24'0 0.0 280 / 61032.6 -4.3-6.6
2018-Jan-17 10:00N 45°36' W 061°24'0 0.0 270 / 61031.7 -4.3-6.6
2018-Jan-17 09:00N 45°36' W 061°24'0 0.0 260 / 71031.8 -4.3-6.7
2018-Jan-17 08:00N 45°36' W 061°24'0 0.0 270 / 71031.1 -4.3-6.4
2018-Jan-17 06:00N 45°36' W 061°24'0 0.0 280 / 51031.3 -4.0-6.4
2018-Jan-17 05:00N 45°36' W 061°24'0 0.0 300 / 71031.3 -3.6-6.3
2018-Jan-17 04:00N 45°36' W 061°24'0 0.0 300 / 81031.2 -3.2-5.9
2018-Jan-17 03:00N 45°36' W 061°24'0 0.0 310 / 81031.6 -3.1-4.7
2018-Jan-17 02:00N 45°36' W 061°24'0 0.0 330 / 81031.4 -3.0-3.7
2018-Jan-17 01:00N 45°36' W 061°24'0 0.0 310 / 71031.1 -2.9-3.3
2018-Jan-17 00:00N 45°36' W 061°24'0 0.0 320 / 61030.6 -2.9-3.4
2018-Jan-16 23:00N 45°36' W 061°24'0 0.0 310 / 81030.2 -2.8-3.8
2018-Jan-16 22:00N 45°36' W 061°24'0 0.0 320 / 81029.5 -2.8-4.0
2018-Jan-16 21:00N 45°36' W 061°24'0 0.0 330 / 91028.8 -2.7-4.0
2018-Jan-16 20:00N 45°36' W 061°24'0 0.0 330 / 101028.3 -2.6-4.0
2018-Jan-16 08:00N 45°36' W 061°24'0 0.0 360 / 31026.1 -3.3-3.4
2018-Jan-16 07:00N 45°36' W 061°24'0 0.0 360 / 31026.7 -3.9-4.2
2018-Jan-16 06:00N 45°36' W 061°24'0 0.0 340 / 51027.7 -3.8-4.1
2018-Jan-16 05:00N 45°36' W 061°24'0 0.0 060 / 51029.2 -4.0-4.5
2018-Jan-16 04:00N 45°36' W 061°24'0 0.0 060 / 51031.1 -4.3-5.0
2018-Jan-16 03:00N 45°36' W 061°24'0 0.0 070 / 51033.5 -4.9-5.7
2018-Jan-16 02:00N 45°36' W 061°24'0 0.0 060 / 41034.8 -4.9-6.3
2018-Jan-16 01:00N 45°36' W 061°24'0 0.0 090 / 41036.9 -4.0-8.0
2018-Jan-16 00:00N 45°36' W 061°24'0 0.0 080 / 51037.8 -4.3-8.2
2018-Jan-15 23:00N 45°36' W 061°24'0 0.0 060 / 31039.2 -4.8-8.1
2018-Jan-15 22:00N 45°36' W 061°24'0 0.0 060 / 41039.3 -4.9-8.5
2018-Jan-15 21:00N 45°36' W 061°24'0 0.0 060 / 51040.0 -4.9-9.0
2018-Jan-15 20:00N 45°36' W 061°24'0 0.0 090 / 31040.2 -4.4-9.0
2018-Jan-15 17:00N 45°36' W 061°24'0 0.0 090 / 41042.1 -4.3-9.8
2018-Jan-15 16:00N 45°36' W 061°24'0 0.0 020 / 31043.3 -5.1-10.5
2018-Jan-15 15:00N 45°36' W 061°24'0 0.0 010 / 61044.1 -5.7-10.9
2018-Jan-15 14:00N 45°36' W 061°24'0 0.0 010 / 51044.2 -6.1-10.7
2018-Jan-15 13:00N 45°36' W 061°24'0 0.0 360 / 61043.0 -6.4-10.1
2018-Jan-15 12:00N 45°36' W 061°24'0 0.0 360 / 51042.6 -6.6-10.4
2018-Jan-15 11:00N 45°36' W 061°24'0 0.0 010 / 61042.0 -6.4-10.2
2018-Jan-15 10:00N 45°36' W 061°24'0 0.0 360 / 41041.6 -6.1-10.0
2018-Jan-15 09:00N 45°36' W 061°24'0 0.0 010 / 51041.0 -6.3-10.7
2018-Jan-15 08:00N 45°36' W 061°24'0 0.0 360 / 71040.3 -6.0-9.9
2018-Jan-15 07:00N 45°36' W 061°24'0 0.0 360 / 61040.6 -5.7-9.7
2018-Jan-15 06:00N 45°36' W 061°24'0 0.0 010 / 71039.3 -5.4-9.2
2018-Jan-15 05:00N 45°36' W 061°24'0 0.0 360 / 61038.5 -5.1-9.2
2018-Jan-15 04:00N 45°36' W 061°24'0 0.0 010 / 71038.3 -5.0-8.8
2018-Jan-15 03:00N 45°36' W 061°24'0 0.0 020 / 41037.6 -4.8-8.6
2018-Jan-15 02:00N 45°36' W 061°24'0 0.0 010 / 71036.7 -4.7-8.3
2018-Jan-15 01:00N 45°36' W 061°24'0 0.0 010 / 51036.2 -4.7-8.0
2018-Jan-15 00:00N 45°36' W 061°24'0 0.0 010 / 71035.3 -4.6-7.4
2018-Jan-14 23:00N 45°36' W 061°24'0 0.0 360 / 61034.0 -4.5-6.8
2018-Jan-14 22:00N 45°36' W 061°24'0 0.0 360 / 81033.2 -4.3-6.7
2018-Jan-14 21:00N 45°36' W 061°24'0 0.0 360 / 61032.2 -4.2-6.7
2018-Jan-14 20:00N 45°36' W 061°24'0 0.0 350 / 111031.1 -4.0-6.4
2018-Jan-14 19:00N 45°36' W 061°24'0 0.0 340 / 121029.4 -3.7-5.8
2018-Jan-14 18:00N 45°36' W 061°24'0 0.0 350 / 101028.3 -3.5-5.6
2018-Jan-14 17:00N 45°36' W 061°24'0 0.0 340 / 91028.7 -3.5-5.5
2018-Jan-14 16:00N 45°36' W 061°24'0 0.0 340 / 111028.1 -3.4-5.6
2018-Jan-14 15:00N 45°36' W 061°24'0 0.0 340 / 101028.2 -3.4-5.6
2018-Jan-14 14:00N 45°36' W 061°24'0 0.0 350 / 91027.4 -3.5-5.4
2018-Jan-14 13:00N 45°36' W 061°24'0 0.0 350 / 91025.9 -3.5-5.0
2018-Jan-14 12:00N 45°36' W 061°24'0 0.0 350 / 81024.2 -3.4-4.7
2018-Jan-14 11:00N 45°36' W 061°24'0 0.0 350 / 81023.6 -3.2-4.4
2018-Jan-14 10:00N 45°36' W 061°24'0 0.0 350 / 101022.3 -2.9-3.5
2018-Jan-14 09:00N 45°36' W 061°24'0 0.0 340 / 91021.3 -2.7-3.3
2018-Jan-14 08:00N 45°36' W 061°24'0 0.0 340 / 121020.1 -2.6-2.9
2018-Jan-14 07:00N 45°36' W 061°24'0 0.0 330 / 151018.6 -2.5-2.8
2018-Jan-14 06:00N 45°36' W 061°24'0 0.0 330 / 161017.4 -2.0-2.4
2018-Jan-14 05:00N 45°36' W 061°24'0 0.0 320 / 131015.9 -1.2-1.6
2018-Jan-14 04:00N 45°36' W 061°24'0 0.0 320 / 131014.7 -0.6-1.1
2018-Jan-14 03:00N 45°36' W 061°24'0 0.0 320 / 151013.2 1.0 0.2
2018-Jan-14 02:00N 45°36' W 061°24'0 0.0 250 / 91010.7 11.710.1
2018-Jan-14 01:00N 45°36' W 061°24'0 0.0 240 / 151009.3 12.810.8
2018-Jan-14 00:00N 45°36' W 061°24'0 0.0 220 / 141008.7 13.611.8
2018-Jan-13 23:00N 45°36' W 061°24'   230 / 111007.8 13.312.0

Dump ship's entire track history